sensor_id;sensor_type;location;lat;lon;timestamp;pressure;altitude;pressure_sealevel;temperature;humidity
77077;BME280;66003;52.286;104.306;2023-03-16T00:00:49;97841.81;;;-2.36;34.04
77077;BME280;66003;52.286;104.306;2023-03-16T00:03:16;97824.16;;;-2.10;33.19
77077;BME280;66003;52.286;104.306;2023-03-16T00:05:51;97820.06;;;-1.56;32.85
77077;BME280;66003;52.286;104.306;2023-03-16T00:08:18;97819.38;;;-0.94;32.70
77077;BME280;66003;52.286;104.306;2023-03-16T00:10:45;97807.81;;;-0.15;31.34
77077;BME280;66003;52.286;104.306;2023-03-16T00:13:16;97805.53;;;0.42;30.83
77077;BME280;66003;52.286;104.306;2023-03-16T00:15:52;97844.47;;;0.61;29.40
77077;BME280;66003;52.286;104.306;2023-03-16T00:18:19;97829.06;;;1.32;29.80
77077;BME280;66003;52.286;104.306;2023-03-16T00:20:50;97825.66;;;2.10;29.71
77077;BME280;66003;52.286;104.306;2023-03-16T00:23:17;97831.66;;;2.74;27.43
77077;BME280;66003;52.286;104.306;2023-03-16T00:25:43;97819.47;;;3.01;27.47
77077;BME280;66003;52.286;104.306;2023-03-16T00:28:10;97825.03;;;3.67;24.59
77077;BME280;66003;52.286;104.306;2023-03-16T00:30:38;97829.06;;;4.57;23.49
77077;BME280;66003;52.286;104.306;2023-03-16T00:33:05;97802.44;;;5.29;24.01
77077;BME280;66003;52.286;104.306;2023-03-16T00:35:31;97784.25;;;5.39;21.54
77077;BME280;66003;52.286;104.306;2023-03-16T00:38:08;97814.28;;;6.72;23.24
77077;BME280;66003;52.286;104.306;2023-03-16T00:40:37;97784.41;;;7.50;20.95
77077;BME280;66003;52.286;104.306;2023-03-16T00:43:04;97783.34;;;8.41;20.76
77077;BME280;66003;52.286;104.306;2023-03-16T00:45:31;97811.53;;;9.30;22.38
77077;BME280;66003;52.286;104.306;2023-03-16T00:47:57;97815.72;;;8.91;20.47
77077;BME280;66003;52.286;104.306;2023-03-16T00:50:23;97815.59;;;9.09;20.46
77077;BME280;66003;52.286;104.306;2023-03-16T00:52:51;97807.50;;;9.16;19.65
77077;BME280;66003;52.286;104.306;2023-03-16T00:55:19;97776.56;;;9.83;18.25
77077;BME280;66003;52.286;104.306;2023-03-16T00:57:45;97815.66;;;10.63;21.36
77077;BME280;66003;52.286;104.306;2023-03-16T01:00:12;97791.53;;;10.58;18.76
77077;BME280;66003;52.286;104.306;2023-03-16T01:02:42;97798.97;;;10.39;18.40
77077;BME280;66003;52.286;104.306;2023-03-16T01:05:12;97782.09;;;11.05;17.88
77077;BME280;66003;52.286;104.306;2023-03-16T01:07:39;97784.56;;;11.94;16.54
77077;BME280;66003;52.286;104.306;2023-03-16T01:10:07;97751.63;;;13.36;16.35
77077;BME280;66003;52.286;104.306;2023-03-16T01:12:33;97776.97;;;12.72;15.83
77077;BME280;66003;52.286;104.306;2023-03-16T01:15:00;97776.50;;;13.17;16.59
77077;BME280;66003;52.286;104.306;2023-03-16T01:17:26;97726.28;;;13.80;16.66
77077;BME280;66003;52.286;104.306;2023-03-16T01:19:52;97766.81;;;13.73;16.42
77077;BME280;66003;52.286;104.306;2023-03-16T01:22:19;97740.78;;;13.79;15.95
77077;BME280;66003;52.286;104.306;2023-03-16T01:24:46;97744.38;;;14.65;16.16
77077;BME280;66003;52.286;104.306;2023-03-16T01:27:13;97747.47;;;15.28;16.15
77077;BME280;66003;52.286;104.306;2023-03-16T01:29:39;97750.56;;;13.37;17.53
77077;BME280;66003;52.286;104.306;2023-03-16T01:32:08;97749.63;;;11.84;16.68
77077;BME280;66003;52.286;104.306;2023-03-16T01:34:34;97747.16;;;13.62;16.31
77077;BME280;66003;52.286;104.306;2023-03-16T01:37:01;97743.06;;;13.50;15.17
77077;BME280;66003;52.286;104.306;2023-03-16T01:39:27;97723.94;;;14.59;16.10
77077;BME280;66003;52.286;104.306;2023-03-16T01:41:53;97753.47;;;14.29;16.26
77077;BME280;66003;52.286;104.306;2023-03-16T01:44:24;97747.56;;;14.32;16.01
77077;BME280;66003;52.286;104.306;2023-03-16T01:46:55;97737.31;;;14.08;16.06
77077;BME280;66003;52.286;104.306;2023-03-16T01:49:32;97754.13;;;15.61;17.79
77077;BME280;66003;52.286;104.306;2023-03-16T01:52:25;97732.56;;;16.10;15.02
77077;BME280;66003;52.286;104.306;2023-03-16T01:54:51;97744.16;;;16.84;14.57
77077;BME280;66003;52.286;104.306;2023-03-16T01:57:25;97707.38;;;16.88;15.91
77077;BME280;66003;52.286;104.306;2023-03-16T02:00:04;97706.94;;;16.76;15.63
77077;BME280;66003;52.286;104.306;2023-03-16T02:02:45;97702.94;;;14.71;15.60
77077;BME280;66003;52.286;104.306;2023-03-16T02:05:18;97713.66;;;14.92;15.69
77077;BME280;66003;52.286;104.306;2023-03-16T02:07:50;97680.97;;;15.24;15.41
77077;BME280;66003;52.286;104.306;2023-03-16T02:10:18;97677.13;;;15.45;14.63
77077;BME280;66003;52.286;104.306;2023-03-16T02:12:45;97674.31;;;15.06;15.22
77077;BME280;66003;52.286;104.306;2023-03-16T02:15:13;97682.16;;;14.97;15.90
77077;BME280;66003;52.286;104.306;2023-03-16T02:17:41;97693.25;;;15.50;15.96
77077;BME280;66003;52.286;104.306;2023-03-16T02:23:23;97686.94;;;17.29;14.52
77077;BME280;66003;52.286;104.306;2023-03-16T02:26:07;97709.31;;;18.15;14.88
77077;BME280;66003;52.286;104.306;2023-03-16T02:28:51;97689.88;;;17.76;14.37
77077;BME280;66003;52.286;104.306;2023-03-16T02:31:23;97669.88;;;17.53;14.47
77077;BME280;66003;52.286;104.306;2023-03-16T02:33:51;97693.13;;;16.82;14.52
77077;BME280;66003;52.286;104.306;2023-03-16T02:36:19;97663.41;;;16.24;14.28
77077;BME280;66003;52.286;104.306;2023-03-16T02:38:45;97669.91;;;16.18;15.05
77077;BME280;66003;52.286;104.306;2023-03-16T02:41:17;97661.59;;;15.81;14.96
77077;BME280;66003;52.286;104.306;2023-03-16T02:43:49;97653.09;;;15.53;14.92
77077;BME280;66003;52.286;104.306;2023-03-16T02:46:18;97670.91;;;13.84;16.24
77077;BME280;66003;52.286;104.306;2023-03-16T02:49:06;97700.50;;;10.47;18.21
77077;BME280;66003;52.286;104.306;2023-03-16T02:51:32;97665.41;;;7.98;20.24
77077;BME280;66003;52.286;104.306;2023-03-16T02:53:59;97707.34;;;6.59;22.06
77077;BME280;66003;52.286;104.306;2023-03-16T02:56:25;97685.38;;;7.66;21.68
77077;BME280;66003;52.286;104.306;2023-03-16T02:58:51;97695.06;;;9.64;20.14
77077;BME280;66003;52.286;104.306;2023-03-16T03:01:17;97646.06;;;10.03;19.82
77077;BME280;66003;52.286;104.306;2023-03-16T03:03:43;97664.41;;;12.45;18.28
77077;BME280;66003;52.286;104.306;2023-03-16T03:06:09;97659.50;;;13.31;17.05
77077;BME280;66003;52.286;104.306;2023-03-16T03:08:35;97637.03;;;12.90;17.46
77077;BME280;66003;52.286;104.306;2023-03-16T03:11:02;97662.72;;;13.28;16.62
77077;BME280;66003;52.286;104.306;2023-03-16T03:13:28;97652.66;;;13.03;16.97
77077;BME280;66003;52.286;104.306;2023-03-16T03:15:54;97675.97;;;13.65;16.64
77077;BME280;66003;52.286;104.306;2023-03-16T03:18:20;97648.06;;;14.22;16.43
77077;BME280;66003;52.286;104.306;2023-03-16T03:20:46;97628.19;;;14.02;16.01
77077;BME280;66003;52.286;104.306;2023-03-16T03:23:12;97628.38;;;12.78;16.80
77077;BME280;66003;52.286;104.306;2023-03-16T03:25:40;97631.16;;;11.50;18.23
77077;BME280;66003;52.286;104.306;2023-03-16T03:28:06;97641.53;;;12.32;17.68
77077;BME280;66003;52.286;104.306;2023-03-16T03:30:32;97616.16;;;12.08;17.70
77077;BME280;66003;52.286;104.306;2023-03-16T03:32:58;97636.41;;;10.69;19.21
77077;BME280;66003;52.286;104.306;2023-03-16T03:35:24;97621.44;;;8.08;21.33
77077;BME280;66003;52.286;104.306;2023-03-16T03:37:50;97635.34;;;6.97;22.36
77077;BME280;66003;52.286;104.306;2023-03-16T03:40:17;97607.13;;;6.11;22.78
77077;BME280;66003;52.286;104.306;2023-03-16T03:42:44;97635.28;;;4.86;25.33
77077;BME280;66003;52.286;104.306;2023-03-16T03:45:11;97630.97;;;4.47;26.31
77077;BME280;66003;52.286;104.306;2023-03-16T03:47:39;97647.44;;;4.49;26.12
77077;BME280;66003;52.286;104.306;2023-03-16T03:50:05;97640.53;;;4.42;24.94
77077;BME280;66003;52.286;104.306;2023-03-16T03:52:31;97636.72;;;4.18;26.30
77077;BME280;66003;52.286;104.306;2023-03-16T03:54:58;97631.63;;;4.16;26.46
77077;BME280;66003;52.286;104.306;2023-03-16T03:57:24;97633.47;;;4.16;26.11
77077;BME280;66003;52.286;104.306;2023-03-16T03:59:50;97559.50;;;3.63;26.86
77077;BME280;66003;52.286;104.306;2023-03-16T04:02:16;97582.03;;;3.79;27.11
77077;BME280;66003;52.286;104.306;2023-03-16T04:04:42;97618.22;;;4.05;26.98
77077;BME280;66003;52.286;104.306;2023-03-16T04:07:08;97577.97;;;3.83;27.43
77077;BME280;66003;52.286;104.306;2023-03-16T04:09:35;97616.19;;;4.07;26.52
77077;BME280;66003;52.286;104.306;2023-03-16T04:12:02;97580.22;;;3.73;27.94
77077;BME280;66003;52.286;104.306;2023-03-16T04:14:29;97573.34;;;3.65;27.14
77077;BME280;66003;52.286;104.306;2023-03-16T04:16:56;97570.28;;;3.48;28.24
77077;BME280;66003;52.286;104.306;2023-03-16T04:19:24;97620.91;;;3.85;27.74
77077;BME280;66003;52.286;104.306;2023-03-16T04:21:50;97598.13;;;3.71;28.25
77077;BME280;66003;52.286;104.306;2023-03-16T04:24:17;97609.09;;;3.81;28.49
77077;BME280;66003;52.286;104.306;2023-03-16T04:26:44;97605.44;;;3.82;28.63
77077;BME280;66003;52.286;104.306;2023-03-16T04:29:11;97564.97;;;3.81;27.72
77077;BME280;66003;52.286;104.306;2023-03-16T04:31:39;97616.16;;;4.20;27.96
77077;BME280;66003;52.286;104.306;2023-03-16T04:34:07;97616.56;;;4.23;27.59
77077;BME280;66003;52.286;104.306;2023-03-16T04:36:33;97612.66;;;4.39;27.49
77077;BME280;66003;52.286;104.306;2023-03-16T04:38:59;97611.81;;;4.45;27.42
77077;BME280;66003;52.286;104.306;2023-03-16T04:41:27;97572.00;;;4.20;27.81
77077;BME280;66003;52.286;104.306;2023-03-16T04:43:53;97589.88;;;4.25;27.41
77077;BME280;66003;52.286;104.306;2023-03-16T04:46:19;97584.78;;;4.30;27.86
77077;BME280;66003;52.286;104.306;2023-03-16T04:48:45;97562.69;;;3.91;28.18
77077;BME280;66003;52.286;104.306;2023-03-16T04:51:11;97572.78;;;4.34;27.96
77077;BME280;66003;52.286;104.306;2023-03-16T04:53:37;97591.47;;;4.46;28.52
77077;BME280;66003;52.286;104.306;2023-03-16T04:56:03;97596.97;;;4.38;28.71
77077;BME280;66003;52.286;104.306;2023-03-16T04:58:29;97559.31;;;4.42;27.95
77077;BME280;66003;52.286;104.306;2023-03-16T05:00:56;97606.97;;;4.35;28.79
77077;BME280;66003;52.286;104.306;2023-03-16T05:03:22;97576.88;;;4.75;27.95
77077;BME280;66003;52.286;104.306;2023-03-16T05:05:49;97595.91;;;4.96;27.65
77077;BME280;66003;52.286;104.306;2023-03-16T05:08:16;97575.75;;;4.57;28.74
77077;BME280;66003;52.286;104.306;2023-03-16T05:10:42;97598.53;;;5.03;28.20
77077;BME280;66003;52.286;104.306;2023-03-16T05:13:09;97559.09;;;4.88;28.05
77077;BME280;66003;52.286;104.306;2023-03-16T05:15:35;97611.53;;;5.11;27.51
77077;BME280;66003;52.286;104.306;2023-03-16T05:18:01;97592.44;;;4.96;27.66
77077;BME280;66003;52.286;104.306;2023-03-16T05:20:27;97563.28;;;4.71;27.68
77077;BME280;66003;52.286;104.306;2023-03-16T05:22:53;97592.69;;;4.88;27.49
77077;BME280;66003;52.286;104.306;2023-03-16T05:25:20;97546.28;;;4.47;28.11
77077;BME280;66003;52.286;104.306;2023-03-16T05:27:48;97561.34;;;4.85;27.88
77077;BME280;66003;52.286;104.306;2023-03-16T05:30:15;97575.47;;;4.72;28.46
77077;BME280;66003;52.286;104.306;2023-03-16T05:32:42;97547.72;;;4.81;27.60
77077;BME280;66003;52.286;104.306;2023-03-16T05:35:09;97542.56;;;4.55;27.80
77077;BME280;66003;52.286;104.306;2023-03-16T05:37:41;97579.72;;;5.11;27.50
77077;BME280;66003;52.286;104.306;2023-03-16T05:40:10;97577.22;;;5.23;26.98
77077;BME280;66003;52.286;104.306;2023-03-16T05:42:45;97570.91;;;4.86;27.99
77077;BME280;66003;52.286;104.306;2023-03-16T05:45:13;97587.69;;;5.11;27.25
77077;BME280;66003;52.286;104.306;2023-03-16T05:47:40;97541.56;;;4.87;26.94
77077;BME280;66003;52.286;104.306;2023-03-16T05:50:08;97553.78;;;5.20;26.59
77077;BME280;66003;52.286;104.306;2023-03-16T05:52:37;97562.81;;;5.12;26.96
77077;BME280;66003;52.286;104.306;2023-03-16T05:55:05;97531.63;;;5.14;26.49
77077;BME280;66003;52.286;104.306;2023-03-16T05:57:32;97525.44;;;5.20;26.58
77077;BME280;66003;52.286;104.306;2023-03-16T06:00:03;97535.53;;;5.36;26.22
77077;BME280;66003;52.286;104.306;2023-03-16T06:02:45;97480.25;;;5.15;26.69
77077;BME280;66003;52.286;104.306;2023-03-16T06:05:14;97542.16;;;5.70;26.35
77077;BME280;66003;52.286;104.306;2023-03-16T06:07:41;97493.22;;;5.48;26.22
77077;BME280;66003;52.286;104.306;2023-03-16T06:10:08;97524.94;;;5.79;26.30
77077;BME280;66003;52.286;104.306;2023-03-16T06:12:34;97512.03;;;5.90;26.18
77077;BME280;66003;52.286;104.306;2023-03-16T06:15:01;97509.94;;;5.92;26.01
77077;BME280;66003;52.286;104.306;2023-03-16T06:17:28;97521.97;;;5.69;26.14
77077;BME280;66003;52.286;104.306;2023-03-16T06:19:54;97492.59;;;5.71;26.39
77077;BME280;66003;52.286;104.306;2023-03-16T06:22:21;97484.97;;;5.56;26.50
77077;BME280;66003;52.286;104.306;2023-03-16T06:24:48;97509.72;;;5.93;26.40
77077;BME280;66003;52.286;104.306;2023-03-16T06:27:14;97478.09;;;5.73;26.37
77077;BME280;66003;52.286;104.306;2023-03-16T06:29:41;97470.50;;;5.77;26.33
77077;BME280;66003;52.286;104.306;2023-03-16T06:32:07;97487.31;;;5.46;26.31
77077;BME280;66003;52.286;104.306;2023-03-16T06:34:33;97502.00;;;5.67;26.73
77077;BME280;66003;52.286;104.306;2023-03-16T06:36:59;97502.88;;;5.61;26.17
77077;BME280;66003;52.286;104.306;2023-03-16T06:39:25;97494.78;;;5.56;26.21
77077;BME280;66003;52.286;104.306;2023-03-16T06:41:51;97490.03;;;5.39;25.90
77077;BME280;66003;52.286;104.306;2023-03-16T06:44:18;97466.69;;;5.30;26.14
77077;BME280;66003;52.286;104.306;2023-03-16T06:46:44;97512.84;;;5.65;25.74
77077;BME280;66003;52.286;104.306;2023-03-16T06:49:11;97477.91;;;5.50;25.69
77077;BME280;66003;52.286;104.306;2023-03-16T06:51:37;97487.28;;;5.53;26.01
77077;BME280;66003;52.286;104.306;2023-03-16T06:54:03;97483.81;;;5.70;26.02
77077;BME280;66003;52.286;104.306;2023-03-16T06:56:30;97498.63;;;5.35;26.31
77077;BME280;66003;52.286;104.306;2023-03-16T06:58:57;97481.16;;;5.52;25.84
77077;BME280;66003;52.286;104.306;2023-03-16T07:01:23;97480.38;;;5.45;26.20
77077;BME280;66003;52.286;104.306;2023-03-16T07:03:49;97481.16;;;5.52;26.04
77077;BME280;66003;52.286;104.306;2023-03-16T07:06:16;97490.75;;;5.71;25.58
77077;BME280;66003;52.286;104.306;2023-03-16T07:08:42;97483.97;;;5.32;25.46
77077;BME280;66003;52.286;104.306;2023-03-16T07:11:09;97499.59;;;5.65;25.75
77077;BME280;66003;52.286;104.306;2023-03-16T07:13:35;97453.25;;;5.50;25.17
77077;BME280;66003;52.286;104.306;2023-03-16T07:16:02;97494.22;;;5.72;25.17
77077;BME280;66003;52.286;104.306;2023-03-16T07:18:29;97479.38;;;5.46;25.20
77077;BME280;66003;52.286;104.306;2023-03-16T07:20:56;97408.44;;;4.98;25.27
77077;BME280;66003;52.286;104.306;2023-03-16T07:23:23;97492.13;;;5.56;25.16
77077;BME280;66003;52.286;104.306;2023-03-16T07:25:50;97455.19;;;5.36;25.52
77077;BME280;66003;52.286;104.306;2023-03-16T07:28:20;97466.09;;;5.46;25.91
77077;BME280;66003;52.286;104.306;2023-03-16T07:30:46;97485.66;;;5.52;25.73
77077;BME280;66003;52.286;104.306;2023-03-16T07:33:13;97451.06;;;5.65;25.32
77077;BME280;66003;52.286;104.306;2023-03-16T07:35:39;97463.19;;;5.72;24.66
77077;BME280;66003;52.286;104.306;2023-03-16T07:38:06;97444.13;;;5.64;24.76
77077;BME280;66003;52.286;104.306;2023-03-16T07:40:34;97473.88;;;5.84;24.56
77077;BME280;66003;52.286;104.306;2023-03-16T07:43:00;97448.69;;;5.75;24.47
77077;BME280;66003;52.286;104.306;2023-03-16T07:45:26;97433.53;;;5.64;24.50
77077;BME280;66003;52.286;104.306;2023-03-16T07:47:52;97473.22;;;5.70;24.26
77077;BME280;66003;52.286;104.306;2023-03-16T07:50:19;97452.03;;;5.45;24.24
77077;BME280;66003;52.286;104.306;2023-03-16T07:52:45;97452.91;;;5.64;24.04
77077;BME280;66003;52.286;104.306;2023-03-16T07:55:12;97470.78;;;5.69;23.57
77077;BME280;66003;52.286;104.306;2023-03-16T07:57:38;97462.56;;;5.77;23.82
77077;BME280;66003;52.286;104.306;2023-03-16T08:00:08;97461.28;;;5.79;23.46
77077;BME280;66003;52.286;104.306;2023-03-16T08:02:35;97460.25;;;5.80;23.39
77077;BME280;66003;52.286;104.306;2023-03-16T08:05:01;97455.53;;;5.82;23.08
77077;BME280;66003;52.286;104.306;2023-03-16T08:07:28;97450.59;;;5.50;22.78
77077;BME280;66003;52.286;104.306;2023-03-16T08:09:55;97470.84;;;5.80;23.51
77077;BME280;66003;52.286;104.306;2023-03-16T08:12:21;97430.78;;;5.70;23.08
77077;BME280;66003;52.286;104.306;2023-03-16T08:14:48;97456.56;;;5.81;22.66
77077;BME280;66003;52.286;104.306;2023-03-16T08:17:14;97418.72;;;5.74;22.84
77077;BME280;66003;52.286;104.306;2023-03-16T08:19:40;97437.06;;;5.76;22.59
77077;BME280;66003;52.286;104.306;2023-03-16T08:22:07;97462.47;;;5.84;23.28
77077;BME280;66003;52.286;104.306;2023-03-16T08:24:33;97457.69;;;5.74;22.72
77077;BME280;66003;52.286;104.306;2023-03-16T08:26:59;97418.03;;;5.61;22.30
77077;BME280;66003;52.286;104.306;2023-03-16T08:29:26;97447.22;;;5.79;22.65
77077;BME280;66003;52.286;104.306;2023-03-16T08:31:52;97445.31;;;5.86;22.96
77077;BME280;66003;52.286;104.306;2023-03-16T08:34:23;97412.75;;;5.61;22.70
77077;BME280;66003;52.286;104.306;2023-03-16T08:36:49;97444.41;;;5.74;22.65
77077;BME280;66003;52.286;104.306;2023-03-16T08:39:15;97415.47;;;5.54;22.42
77077;BME280;66003;52.286;104.306;2023-03-16T08:41:42;97423.50;;;5.66;22.32
77077;BME280;66003;52.286;104.306;2023-03-16T08:44:11;97433.56;;;5.57;22.66
77077;BME280;66003;52.286;104.306;2023-03-16T08:46:38;97435.19;;;5.58;22.79
77077;BME280;66003;52.286;104.306;2023-03-16T08:49:05;97426.00;;;5.42;22.41
77077;BME280;66003;52.286;104.306;2023-03-16T08:51:32;97423.25;;;5.49;22.89
77077;BME280;66003;52.286;104.306;2023-03-16T08:53:58;97424.06;;;5.50;22.75
77077;BME280;66003;52.286;104.306;2023-03-16T08:56:24;97417.28;;;5.35;22.90
77077;BME280;66003;52.286;104.306;2023-03-16T08:58:51;97407.16;;;5.51;22.69
77077;BME280;66003;52.286;104.306;2023-03-16T09:01:17;97389.97;;;5.35;22.98
77077;BME280;66003;52.286;104.306;2023-03-16T09:03:44;97406.94;;;5.52;22.54
77077;BME280;66003;52.286;104.306;2023-03-16T09:06:13;97415.56;;;5.66;22.57
77077;BME280;66003;52.286;104.306;2023-03-16T09:08:39;97387.09;;;5.36;22.99
77077;BME280;66003;52.286;104.306;2023-03-16T09:11:11;97409.84;;;5.44;23.04
77077;BME280;66003;52.286;104.306;2023-03-16T09:13:39;97412.16;;;5.59;22.92
77077;BME280;66003;52.286;104.306;2023-03-16T09:16:06;97405.91;;;5.53;22.97
77077;BME280;66003;52.286;104.306;2023-03-16T09:18:33;97379.88;;;5.25;22.94
77077;BME280;66003;52.286;104.306;2023-03-16T09:21:01;97405.06;;;5.34;22.81
77077;BME280;66003;52.286;104.306;2023-03-16T09:23:28;97399.31;;;5.37;23.07
77077;BME280;66003;52.286;104.306;2023-03-16T09:26:00;97403.50;;;5.27;23.20
77077;BME280;66003;52.286;104.306;2023-03-16T09:28:27;97402.69;;;5.26;23.38
77077;BME280;66003;52.286;104.306;2023-03-16T09:30:54;97393.47;;;5.11;23.28
77077;BME280;66003;52.286;104.306;2023-03-16T09:33:22;97389.56;;;5.13;23.21
77077;BME280;66003;52.286;104.306;2023-03-16T09:35:49;97384.69;;;5.10;23.36
77077;BME280;66003;52.286;104.306;2023-03-16T09:38:20;97360.41;;;4.95;23.11
77077;BME280;66003;52.286;104.306;2023-03-16T09:41:02;97374.63;;;5.00;23.59
77077;BME280;66003;52.286;104.306;2023-03-16T09:48:50;97403.47;;;5.08;23.36
77077;BME280;66003;52.286;104.306;2023-03-16T09:51:34;97411.88;;;5.05;23.53
77077;BME280;66003;52.286;104.306;2023-03-16T09:54:09;97366.44;;;4.84;23.71
77077;BME280;66003;52.286;104.306;2023-03-16T09:56:40;97374.47;;;4.70;23.80
77077;BME280;66003;52.286;104.306;2023-03-16T09:59:12;97398.66;;;4.99;23.83
77077;BME280;66003;52.286;104.306;2023-03-16T10:04:39;97397.22;;;4.78;24.44
77077;BME280;66003;52.286;104.306;2023-03-16T10:12:30;97407.59;;;4.80;24.24
77077;BME280;66003;52.286;104.306;2023-03-16T10:15:10;97397.09;;;4.66;24.20
77077;BME280;66003;52.286;104.306;2023-03-16T10:18:01;97378.13;;;4.45;24.55
77077;BME280;66003;52.286;104.306;2023-03-16T10:20:33;97391.09;;;4.53;24.50
77077;BME280;66003;52.286;104.306;2023-03-16T10:23:11;97386.78;;;4.58;24.66
77077;BME280;66003;52.286;104.306;2023-03-16T10:25:47;97400.66;;;4.54;24.92
77077;BME280;66003;52.286;104.306;2023-03-16T10:28:19;97392.25;;;4.32;24.92
77077;BME280;66003;52.286;104.306;2023-03-16T10:30:48;97388.44;;;4.21;25.25
77077;BME280;66003;52.286;104.306;2023-03-16T10:33:25;97407.19;;;4.20;25.82
77077;BME280;66003;52.286;104.306;2023-03-16T10:36:01;97389.75;;;4.06;25.67
77077;BME280;66003;52.286;104.306;2023-03-16T10:38:39;97389.19;;;3.90;26.22
77077;BME280;66003;52.286;104.306;2023-03-16T10:43:48;97387.59;;;3.89;26.03
77077;BME280;66003;52.286;104.306;2023-03-16T10:46:15;97385.19;;;3.81;25.91
77077;BME280;66003;52.286;104.306;2023-03-16T10:48:51;97379.34;;;3.73;26.68
77077;BME280;66003;52.286;104.306;2023-03-16T10:51:18;97358.44;;;3.58;26.35
77077;BME280;66003;52.286;104.306;2023-03-16T10:53:47;97360.31;;;3.51;26.10
77077;BME280;66003;52.286;104.306;2023-03-16T10:56:23;97374.13;;;3.46;26.41
77077;BME280;66003;52.286;104.306;2023-03-16T10:58:50;97359.34;;;3.32;26.66
77077;BME280;66003;52.286;104.306;2023-03-16T11:01:20;97371.72;;;3.32;27.01
77077;BME280;66003;52.286;104.306;2023-03-16T11:03:49;97385.34;;;3.35;27.35
77077;BME280;66003;52.286;104.306;2023-03-16T11:08:49;97395.97;;;3.15;27.20
77077;BME280;66003;52.286;104.306;2023-03-16T11:11:29;97392.31;;;2.97;27.69
77077;BME280;66003;52.286;104.306;2023-03-16T11:13:59;97397.00;;;2.88;27.78
77077;BME280;66003;52.286;104.306;2023-03-16T11:19:30;97375.88;;;2.62;27.78
77077;BME280;66003;52.286;104.306;2023-03-16T11:22:12;97402.91;;;2.70;28.13
77077;BME280;66003;52.286;104.306;2023-03-16T11:27:16;97358.25;;;2.36;28.21
77077;BME280;66003;52.286;104.306;2023-03-16T11:32:37;97360.84;;;2.29;28.06
77077;BME280;66003;52.286;104.306;2023-03-16T11:35:36;97356.38;;;2.16;28.95
77077;BME280;66003;52.286;104.306;2023-03-16T11:38:14;97405.50;;;2.31;28.55
77077;BME280;66003;52.286;104.306;2023-03-16T11:41:05;97404.25;;;2.27;28.61
77077;BME280;66003;52.286;104.306;2023-03-16T11:43:50;97408.09;;;2.17;29.22
77077;BME280;66003;52.286;104.306;2023-03-16T11:55:09;97378.97;;;1.78;29.51
77077;BME280;66003;52.286;104.306;2023-03-16T12:01:00;97404.38;;;1.92;28.97
77077;BME280;66003;52.286;104.306;2023-03-16T12:03:43;97405.56;;;1.76;29.96
77077;BME280;66003;52.286;104.306;2023-03-16T12:11:57;97403.44;;;1.65;29.78
77077;BME280;66003;52.286;104.306;2023-03-16T12:22:19;97402.66;;;1.30;30.30
77077;BME280;66003;52.286;104.306;2023-03-16T12:24:49;97383.69;;;1.07;30.43
77077;BME280;66003;52.286;104.306;2023-03-16T12:27:22;97407.09;;;1.23;30.29
77077;BME280;66003;52.286;104.306;2023-03-16T12:30:20;97414.22;;;1.29;29.82
77077;BME280;66003;52.286;104.306;2023-03-16T12:35:40;97421.06;;;1.24;30.22
77077;BME280;66003;52.286;104.306;2023-03-16T12:38:28;97388.69;;;0.95;29.90
77077;BME280;66003;52.286;104.306;2023-03-16T12:41:00;97423.16;;;1.00;29.98
77077;BME280;66003;52.286;104.306;2023-03-16T12:44:06;97418.34;;;1.11;29.85
77077;BME280;66003;52.286;104.306;2023-03-16T12:46:50;97429.22;;;1.01;30.82
77077;BME280;66003;52.286;104.306;2023-03-16T12:49:22;97383.34;;;0.54;32.27
77077;BME280;66003;52.286;104.306;2023-03-16T12:52:05;97416.44;;;0.70;31.78
77077;BME280;66003;52.286;104.306;2023-03-16T12:54:32;97398.56;;;0.59;31.66
77077;BME280;66003;52.286;104.306;2023-03-16T12:57:08;97418.97;;;0.57;31.24
77077;BME280;66003;52.286;104.306;2023-03-16T12:59:48;97412.19;;;0.48;31.71
77077;BME280;66003;52.286;104.306;2023-03-16T13:02:31;97381.84;;;0.24;31.70
77077;BME280;66003;52.286;104.306;2023-03-16T13:05:17;97419.06;;;0.27;31.55
77077;BME280;66003;52.286;104.306;2023-03-16T13:07:52;97394.88;;;0.11;32.01
77077;BME280;66003;52.286;104.306;2023-03-16T13:10:28;97408.25;;;0.16;31.73
77077;BME280;66003;52.286;104.306;2023-03-16T13:13:06;97397.41;;;0.04;32.01
77077;BME280;66003;52.286;104.306;2023-03-16T13:15:33;97389.16;;;-0.14;32.14
77077;BME280;66003;52.286;104.306;2023-03-16T13:18:17;97365.09;;;-0.32;32.16
77077;BME280;66003;52.286;104.306;2023-03-16T13:20:50;97410.31;;;-0.01;31.61
77077;BME280;66003;52.286;104.306;2023-03-16T13:26:33;97403.69;;;-0.12;31.42
77077;BME280;66003;52.286;104.306;2023-03-16T13:28:34;97383.75;;;-0.27;32.03
77077;BME280;66003;52.286;104.306;2023-03-16T13:31:01;97403.28;;;-0.15;31.52
77077;BME280;66003;52.286;104.306;2023-03-16T13:33:34;97388.19;;;-0.28;31.66
77077;BME280;66003;52.286;104.306;2023-03-16T13:36:04;97397.88;;;-0.28;31.72
77077;BME280;66003;52.286;104.306;2023-03-16T13:38:31;97393.78;;;-0.31;31.57
77077;BME280;66003;52.286;104.306;2023-03-16T13:41:08;97375.44;;;-0.46;31.79
77077;BME280;66003;52.286;104.306;2023-03-16T13:43:38;97393.34;;;-0.34;31.65
77077;BME280;66003;52.286;104.306;2023-03-16T13:46:17;97379.06;;;-0.47;31.53
77077;BME280;66003;52.286;104.306;2023-03-16T13:48:46;97283.78;;;-1.13;31.50
77077;BME280;66003;52.286;104.306;2023-03-16T13:51:16;97380.88;;;-0.47;31.45
77077;BME280;66003;52.286;104.306;2023-03-16T13:53:43;97374.72;;;-0.54;31.46
77077;BME280;66003;52.286;104.306;2023-03-16T13:56:20;97348.50;;;-0.69;31.13
77077;BME280;66003;52.286;104.306;2023-03-16T13:58:49;97380.72;;;-0.75;32.30
77077;BME280;66003;52.286;104.306;2023-03-16T14:01:30;97378.34;;;-0.55;31.62